sensor_id;sensor_type;location;lat;lon;timestamp;temperature;humidity
38223;DHT22;24024;51.186;6.458;2023-08-07T00:01:22;14.70;80.30
38223;DHT22;24024;51.186;6.458;2023-08-07T00:03:50;14.80;80.50
38223;DHT22;24024;51.186;6.458;2023-08-07T00:06:17;14.80;80.40
38223;DHT22;24024;51.186;6.458;2023-08-07T00:08:44;14.50;81.00
38223;DHT22;24024;51.186;6.458;2023-08-07T00:11:12;14.50;81.30
38223;DHT22;24024;51.186;6.458;2023-08-07T00:13:40;14.50;81.20
38223;DHT22;24024;51.186;6.458;2023-08-07T00:16:07;14.40;81.50
38223;DHT22;24024;51.186;6.458;2023-08-07T00:18:37;14.40;81.60
38223;DHT22;24024;51.186;6.458;2023-08-07T00:21:04;14.50;81.50
38223;DHT22;24024;51.186;6.458;2023-08-07T00:23:30;14.60;81.00
38223;DHT22;24024;51.186;6.458;2023-08-07T00:25:59;14.60;80.80
38223;DHT22;24024;51.186;6.458;2023-08-07T00:28:26;14.60;80.90
38223;DHT22;24024;51.186;6.458;2023-08-07T00:30:53;14.60;81.30
38223;DHT22;24024;51.186;6.458;2023-08-07T00:33:21;14.60;81.20
38223;DHT22;24024;51.186;6.458;2023-08-07T00:35:49;14.60;81.20
38223;DHT22;24024;51.186;6.458;2023-08-07T00:38:18;14.80;81.00
38223;DHT22;24024;51.186;6.458;2023-08-07T00:40:44;14.70;80.80
38223;DHT22;24024;51.186;6.458;2023-08-07T00:43:14;14.60;81.40
38223;DHT22;24024;51.186;6.458;2023-08-07T00:45:42;14.80;80.90
38223;DHT22;24024;51.186;6.458;2023-08-07T00:48:10;14.60;81.00
38223;DHT22;24024;51.186;6.458;2023-08-07T00:50:39;14.60;80.90
38223;DHT22;24024;51.186;6.458;2023-08-07T00:53:13;14.60;81.40
38223;DHT22;24024;51.186;6.458;2023-08-07T00:55:43;14.70;80.90
38223;DHT22;24024;51.186;6.458;2023-08-07T00:58:12;14.70;80.80
38223;DHT22;24024;51.186;6.458;2023-08-07T01:00:39;14.70;80.60
38223;DHT22;24024;51.186;6.458;2023-08-07T01:03:08;14.70;80.90
38223;DHT22;24024;51.186;6.458;2023-08-07T01:05:37;14.80;80.50
38223;DHT22;24024;51.186;6.458;2023-08-07T01:08:07;14.80;80.30
38223;DHT22;24024;51.186;6.458;2023-08-07T01:13:40;14.80;80.50
38223;DHT22;24024;51.186;6.458;2023-08-07T01:16:18;14.70;80.70
38223;DHT22;24024;51.186;6.458;2023-08-07T01:18:50;14.70;80.70
38223;DHT22;24024;51.186;6.458;2023-08-07T01:21:18;14.80;80.40
38223;DHT22;24024;51.186;6.458;2023-08-07T01:23:48;14.90;80.40
38223;DHT22;24024;51.186;6.458;2023-08-07T01:26:19;14.90;80.10
38223;DHT22;24024;51.186;6.458;2023-08-07T01:29:08;15.00;79.70
38223;DHT22;24024;51.186;6.458;2023-08-07T01:31:39;14.90;80.00
38223;DHT22;24024;51.186;6.458;2023-08-07T01:34:08;14.90;80.20
38223;DHT22;24024;51.186;6.458;2023-08-07T01:36:37;15.00;80.00
38223;DHT22;24024;51.186;6.458;2023-08-07T01:39:12;14.90;80.30
38223;DHT22;24024;51.186;6.458;2023-08-07T01:41:42;15.00;80.60
38223;DHT22;24024;51.186;6.458;2023-08-07T01:44:08;14.80;80.90
38223;DHT22;24024;51.186;6.458;2023-08-07T01:46:35;14.80;81.10
38223;DHT22;24024;51.186;6.458;2023-08-07T01:49:02;14.80;81.40
38223;DHT22;24024;51.186;6.458;2023-08-07T01:51:29;14.80;81.50
38223;DHT22;24024;51.186;6.458;2023-08-07T01:53:58;14.90;81.20
38223;DHT22;24024;51.186;6.458;2023-08-07T01:56:25;14.80;81.40
38223;DHT22;24024;51.186;6.458;2023-08-07T01:58:54;14.90;81.20
38223;DHT22;24024;51.186;6.458;2023-08-07T02:01:20;14.90;81.00
38223;DHT22;24024;51.186;6.458;2023-08-07T02:03:49;14.90;81.10
38223;DHT22;24024;51.186;6.458;2023-08-07T02:06:18;14.70;81.20
38223;DHT22;24024;51.186;6.458;2023-08-07T02:08:50;14.60;81.60
38223;DHT22;24024;51.186;6.458;2023-08-07T02:11:19;14.60;82.00
38223;DHT22;24024;51.186;6.458;2023-08-07T02:13:46;14.60;81.80
38223;DHT22;24024;51.186;6.458;2023-08-07T02:16:12;14.50;81.80
38223;DHT22;24024;51.186;6.458;2023-08-07T02:18:39;14.30;82.00
38223;DHT22;24024;51.186;6.458;2023-08-07T02:21:06;14.30;82.10
38223;DHT22;24024;51.186;6.458;2023-08-07T02:23:33;14.40;81.90
38223;DHT22;24024;51.186;6.458;2023-08-07T02:26:03;14.50;81.80
38223;DHT22;24024;51.186;6.458;2023-08-07T02:28:35;14.50;81.60
38223;DHT22;24024;51.186;6.458;2023-08-07T02:31:04;14.30;82.00
38223;DHT22;24024;51.186;6.458;2023-08-07T02:33:31;14.40;81.90
38223;DHT22;24024;51.186;6.458;2023-08-07T02:35:59;14.50;81.50
38223;DHT22;24024;51.186;6.458;2023-08-07T02:38:25;14.50;81.40
38223;DHT22;24024;51.186;6.458;2023-08-07T02:40:52;14.60;81.00
38223;DHT22;24024;51.186;6.458;2023-08-07T02:43:21;14.80;80.80
38223;DHT22;24024;51.186;6.458;2023-08-07T02:45:48;14.80;80.70
38223;DHT22;24024;51.186;6.458;2023-08-07T02:48:17;14.90;80.40
38223;DHT22;24024;51.186;6.458;2023-08-07T02:50:44;15.00;80.00
38223;DHT22;24024;51.186;6.458;2023-08-07T02:53:11;14.90;79.60
38223;DHT22;24024;51.186;6.458;2023-08-07T02:55:43;14.80;79.70
38223;DHT22;24024;51.186;6.458;2023-08-07T02:58:12;14.80;79.70
38223;DHT22;24024;51.186;6.458;2023-08-07T03:00:39;14.60;80.00
38223;DHT22;24024;51.186;6.458;2023-08-07T03:03:08;14.60;80.20
38223;DHT22;24024;51.186;6.458;2023-08-07T03:05:37;14.70;79.90
38223;DHT22;24024;51.186;6.458;2023-08-07T03:08:06;14.60;79.90
38223;DHT22;24024;51.186;6.458;2023-08-07T03:10:35;14.50;80.10
38223;DHT22;24024;51.186;6.458;2023-08-07T03:13:07;14.50;80.40
38223;DHT22;24024;51.186;6.458;2023-08-07T03:15:36;14.50;80.30
38223;DHT22;24024;51.186;6.458;2023-08-07T03:18:02;14.50;80.30
38223;DHT22;24024;51.186;6.458;2023-08-07T03:20:29;14.50;80.30
38223;DHT22;24024;51.186;6.458;2023-08-07T03:22:56;14.60;79.90
38223;DHT22;24024;51.186;6.458;2023-08-07T03:25:25;14.40;80.20
38223;DHT22;24024;51.186;6.458;2023-08-07T03:27:52;14.40;80.70
38223;DHT22;24024;51.186;6.458;2023-08-07T03:30:18;14.50;80.40
38223;DHT22;24024;51.186;6.458;2023-08-07T03:32:47;14.40;80.40
38223;DHT22;24024;51.186;6.458;2023-08-07T03:35:19;14.30;80.50
38223;DHT22;24024;51.186;6.458;2023-08-07T03:37:46;14.10;81.40
38223;DHT22;24024;51.186;6.458;2023-08-07T03:40:15;14.10;81.60
38223;DHT22;24024;51.186;6.458;2023-08-07T03:42:41;14.30;81.30
38223;DHT22;24024;51.186;6.458;2023-08-07T03:45:08;14.50;80.70
38223;DHT22;24024;51.186;6.458;2023-08-07T03:47:37;14.30;80.90
38223;DHT22;24024;51.186;6.458;2023-08-07T03:50:05;14.20;81.00
38223;DHT22;24024;51.186;6.458;2023-08-07T03:52:34;14.30;81.10
38223;DHT22;24024;51.186;6.458;2023-08-07T03:55:03;14.20;81.30
38223;DHT22;24024;51.186;6.458;2023-08-07T03:57:30;14.20;81.50
38223;DHT22;24024;51.186;6.458;2023-08-07T03:59:57;14.30;81.50
38223;DHT22;24024;51.186;6.458;2023-08-07T04:02:24;14.20;81.30
38223;DHT22;24024;51.186;6.458;2023-08-07T04:04:55;14.30;81.20
38223;DHT22;24024;51.186;6.458;2023-08-07T04:07:24;14.30;81.10
38223;DHT22;24024;51.186;6.458;2023-08-07T04:09:51;14.40;80.80
38223;DHT22;24024;51.186;6.458;2023-08-07T04:12:17;14.40;80.90
38223;DHT22;24024;51.186;6.458;2023-08-07T04:14:47;14.30;80.80
38223;DHT22;24024;51.186;6.458;2023-08-07T04:17:13;14.40;80.90
38223;DHT22;24024;51.186;6.458;2023-08-07T04:19:40;14.60;80.20
38223;DHT22;24024;51.186;6.458;2023-08-07T04:22:09;14.40;80.50
38223;DHT22;24024;51.186;6.458;2023-08-07T04:24:36;14.40;80.60
38223;DHT22;24024;51.186;6.458;2023-08-07T04:27:03;14.40;80.90
38223;DHT22;24024;51.186;6.458;2023-08-07T04:29:30;14.40;80.80
38223;DHT22;24024;51.186;6.458;2023-08-07T04:31:56;14.60;80.60
38223;DHT22;24024;51.186;6.458;2023-08-07T04:34:25;14.60;80.40
38223;DHT22;24024;51.186;6.458;2023-08-07T04:36:52;14.60;80.40
38223;DHT22;24024;51.186;6.458;2023-08-07T04:39:23;14.60;80.20
38223;DHT22;24024;51.186;6.458;2023-08-07T04:41:52;14.70;80.30
38223;DHT22;24024;51.186;6.458;2023-08-07T04:44:19;14.90;79.70
38223;DHT22;24024;51.186;6.458;2023-08-07T04:46:48;14.80;79.60
38223;DHT22;24024;51.186;6.458;2023-08-07T04:49:15;14.80;79.60
38223;DHT22;24024;51.186;6.458;2023-08-07T04:51:44;14.90;79.70
38223;DHT22;24024;51.186;6.458;2023-08-07T04:54:15;14.90;79.50
38223;DHT22;24024;51.186;6.458;2023-08-07T04:56:42;15.00;79.10
38223;DHT22;24024;51.186;6.458;2023-08-07T04:59:11;15.10;78.90
38223;DHT22;24024;51.186;6.458;2023-08-07T05:01:40;15.00;79.10
38223;DHT22;24024;51.186;6.458;2023-08-07T05:04:07;15.10;78.90
38223;DHT22;24024;51.186;6.458;2023-08-07T05:06:39;15.10;78.50
38223;DHT22;24024;51.186;6.458;2023-08-07T05:09:05;15.10;78.60
38223;DHT22;24024;51.186;6.458;2023-08-07T05:11:34;15.10;78.50
38223;DHT22;24024;51.186;6.458;2023-08-07T05:14:01;15.00;79.00
38223;DHT22;24024;51.186;6.458;2023-08-07T05:16:28;14.90;79.10
38223;DHT22;24024;51.186;6.458;2023-08-07T05:18:57;15.00;78.90
38223;DHT22;24024;51.186;6.458;2023-08-07T05:21:23;14.90;78.80
38223;DHT22;24024;51.186;6.458;2023-08-07T05:23:52;14.70;79.20
38223;DHT22;24024;51.186;6.458;2023-08-07T05:26:21;14.80;79.20
38223;DHT22;24024;51.186;6.458;2023-08-07T05:28:53;14.80;79.00
38223;DHT22;24024;51.186;6.458;2023-08-07T05:31:23;14.80;78.90
38223;DHT22;24024;51.186;6.458;2023-08-07T05:33:49;14.80;78.90
38223;DHT22;24024;51.186;6.458;2023-08-07T05:36:16;14.70;79.10
38223;DHT22;24024;51.186;6.458;2023-08-07T05:38:43;14.70;79.30
38223;DHT22;24024;51.186;6.458;2023-08-07T05:41:10;14.60;79.40
38223;DHT22;24024;51.186;6.458;2023-08-07T05:43:36;14.70;79.30
38223;DHT22;24024;51.186;6.458;2023-08-07T05:46:03;14.80;79.00
38223;DHT22;24024;51.186;6.458;2023-08-07T05:48:30;14.80;79.00
38223;DHT22;24024;51.186;6.458;2023-08-07T05:51:02;14.70;79.20
38223;DHT22;24024;51.186;6.458;2023-08-07T05:53:31;14.60;79.70
38223;DHT22;24024;51.186;6.458;2023-08-07T05:55:59;14.80;79.60
38223;DHT22;24024;51.186;6.458;2023-08-07T05:58:26;14.70;79.60
38223;DHT22;24024;51.186;6.458;2023-08-07T06:00:53;14.70;79.60
38223;DHT22;24024;51.186;6.458;2023-08-07T06:03:22;14.70;79.90
38223;DHT22;24024;51.186;6.458;2023-08-07T06:05:49;14.60;79.70
38223;DHT22;24024;51.186;6.458;2023-08-07T06:08:16;14.80;80.00
38223;DHT22;24024;51.186;6.458;2023-08-07T06:10:43;14.60;80.10
38223;DHT22;24024;51.186;6.458;2023-08-07T06:13:09;14.60;80.50
38223;DHT22;24024;51.186;6.458;2023-08-07T06:15:52;14.60;80.60
38223;DHT22;24024;51.186;6.458;2023-08-07T06:18:19;14.60;80.60
38223;DHT22;24024;51.186;6.458;2023-08-07T06:20:45;14.60;80.70
38223;DHT22;24024;51.186;6.458;2023-08-07T06:23:13;14.50;80.80
38223;DHT22;24024;51.186;6.458;2023-08-07T06:25:39;14.50;80.70
38223;DHT22;24024;51.186;6.458;2023-08-07T06:28:06;14.30;81.00
38223;DHT22;24024;51.186;6.458;2023-08-07T06:30:33;14.40;81.40
38223;DHT22;24024;51.186;6.458;2023-08-07T06:32:59;14.40;81.50
38223;DHT22;24024;51.186;6.458;2023-08-07T06:35:31;14.50;81.00
38223;DHT22;24024;51.186;6.458;2023-08-07T06:38:05;14.60;81.30
38223;DHT22;24024;51.186;6.458;2023-08-07T06:40:35;14.60;81.10
38223;DHT22;24024;51.186;6.458;2023-08-07T06:43:02;14.50;81.10
38223;DHT22;24024;51.186;6.458;2023-08-07T06:45:29;14.40;81.60
38223;DHT22;24024;51.186;6.458;2023-08-07T06:48:00;14.40;81.50
38223;DHT22;24024;51.186;6.458;2023-08-07T06:50:27;14.30;81.70
38223;DHT22;24024;51.186;6.458;2023-08-07T06:52:54;14.30;81.90
38223;DHT22;24024;51.186;6.458;2023-08-07T06:55:20;14.30;82.00
38223;DHT22;24024;51.186;6.458;2023-08-07T06:57:49;14.40;82.00
38223;DHT22;24024;51.186;6.458;2023-08-07T07:00:19;14.30;82.20
38223;DHT22;24024;51.186;6.458;2023-08-07T07:02:45;14.30;82.30
38223;DHT22;24024;51.186;6.458;2023-08-07T07:05:12;14.10;82.60
38223;DHT22;24024;51.186;6.458;2023-08-07T07:07:39;14.20;82.90
38223;DHT22;24024;51.186;6.458;2023-08-07T07:10:08;14.20;83.10
38223;DHT22;24024;51.186;6.458;2023-08-07T07:12:36;14.20;83.00
38223;DHT22;24024;51.186;6.458;2023-08-07T07:15:03;14.30;82.90
38223;DHT22;24024;51.186;6.458;2023-08-07T07:17:30;14.30;82.60
38223;DHT22;24024;51.186;6.458;2023-08-07T07:19:57;14.40;82.50
38223;DHT22;24024;51.186;6.458;2023-08-07T07:22:32;14.60;82.00
38223;DHT22;24024;51.186;6.458;2023-08-07T07:25:03;14.30;82.50
38223;DHT22;24024;51.186;6.458;2023-08-07T07:27:30;14.30;82.70
38223;DHT22;24024;51.186;6.458;2023-08-07T07:30:02;14.30;82.40
38223;DHT22;24024;51.186;6.458;2023-08-07T07:32:29;14.60;82.00
38223;DHT22;24024;51.186;6.458;2023-08-07T07:34:55;14.60;81.80
38223;DHT22;24024;51.186;6.458;2023-08-07T07:37:22;14.70;81.50
38223;DHT22;24024;51.186;6.458;2023-08-07T07:39:49;14.60;81.40
38223;DHT22;24024;51.186;6.458;2023-08-07T07:42:16;14.70;81.30
38223;DHT22;24024;51.186;6.458;2023-08-07T07:44:44;14.60;81.10
38223;DHT22;24024;51.186;6.458;2023-08-07T07:47:10;14.60;81.10
38223;DHT22;24024;51.186;6.458;2023-08-07T07:49:44;14.70;80.90
38223;DHT22;24024;51.186;6.458;2023-08-07T07:52:16;14.60;81.30
38223;DHT22;24024;51.186;6.458;2023-08-07T07:54:43;14.80;80.80
38223;DHT22;24024;51.186;6.458;2023-08-07T07:57:09;14.80;80.60
38223;DHT22;24024;51.186;6.458;2023-08-07T07:59:39;14.80;80.40
38223;DHT22;24024;51.186;6.458;2023-08-07T08:02:08;14.80;80.40
38223;DHT22;24024;51.186;6.458;2023-08-07T08:04:36;14.80;80.60
38223;DHT22;24024;51.186;6.458;2023-08-07T08:07:03;15.00;80.10
38223;DHT22;24024;51.186;6.458;2023-08-07T08:09:30;15.10;79.50
38223;DHT22;24024;51.186;6.458;2023-08-07T08:12:02;15.10;79.70
38223;DHT22;24024;51.186;6.458;2023-08-07T08:14:32;15.00;79.90
38223;DHT22;24024;51.186;6.458;2023-08-07T08:17:18;15.10;79.70
38223;DHT22;24024;51.186;6.458;2023-08-07T08:19:48;15.10;79.80
38223;DHT22;24024;51.186;6.458;2023-08-07T08:22:17;15.10;79.80
38223;DHT22;24024;51.186;6.458;2023-08-07T08:24:44;15.10;79.90
38223;DHT22;24024;51.186;6.458;2023-08-07T08:27:11;15.00;79.70
38223;DHT22;24024;51.186;6.458;2023-08-07T08:29:40;15.10;79.70
38223;DHT22;24024;51.186;6.458;2023-08-07T08:32:09;15.20;79.20
38223;DHT22;24024;51.186;6.458;2023-08-07T08:34:36;15.20;78.90
38223;DHT22;24024;51.186;6.458;2023-08-07T08:37:02;15.20;79.00
38223;DHT22;24024;51.186;6.458;2023-08-07T08:39:34;15.20;78.80
38223;DHT22;24024;51.186;6.458;2023-08-07T08:42:04;15.20;78.60
38223;DHT22;24024;51.186;6.458;2023-08-07T08:44:36;15.10;77.80
38223;DHT22;24024;51.186;6.458;2023-08-07T08:47:06;15.10;78.50
38223;DHT22;24024;51.186;6.458;2023-08-07T08:49:37;15.20;78.30
38223;DHT22;24024;51.186;6.458;2023-08-07T08:52:08;15.50;78.20
38223;DHT22;24024;51.186;6.458;2023-08-07T08:54:35;15.60;77.40
38223;DHT22;24024;51.186;6.458;2023-08-07T08:57:06;15.60;77.00
38223;DHT22;24024;51.186;6.458;2023-08-07T08:59:35;15.80;76.90
38223;DHT22;24024;51.186;6.458;2023-08-07T09:02:06;15.70;76.20
38223;DHT22;24024;51.186;6.458;2023-08-07T09:04:36;15.70;76.60
38223;DHT22;24024;51.186;6.458;2023-08-07T09:07:09;15.60;76.00
38223;DHT22;24024;51.186;6.458;2023-08-07T09:09:37;15.50;77.00
38223;DHT22;24024;51.186;6.458;2023-08-07T09:12:05;15.50;76.70
38223;DHT22;24024;51.186;6.458;2023-08-07T09:14:33;15.50;76.20
38223;DHT22;24024;51.186;6.458;2023-08-07T09:17:02;15.60;76.80
38223;DHT22;24024;51.186;6.458;2023-08-07T09:19:29;15.60;76.40
38223;DHT22;24024;51.186;6.458;2023-08-07T09:21:57;15.60;76.20
38223;DHT22;24024;51.186;6.458;2023-08-07T09:24:23;15.60;76.20
38223;DHT22;24024;51.186;6.458;2023-08-07T09:26:51;15.60;76.00
38223;DHT22;24024;51.186;6.458;2023-08-07T09:29:20;15.60;75.80
38223;DHT22;24024;51.186;6.458;2023-08-07T09:31:50;15.70;76.00
38223;DHT22;24024;51.186;6.458;2023-08-07T09:34:22;15.80;75.70
38223;DHT22;24024;51.186;6.458;2023-08-07T09:36:49;16.00;75.50
38223;DHT22;24024;51.186;6.458;2023-08-07T09:39:16;16.10;74.20
38223;DHT22;24024;51.186;6.458;2023-08-07T09:41:54;16.10;73.10
38223;DHT22;24024;51.186;6.458;2023-08-07T09:44:24;16.20;73.00
38223;DHT22;24024;51.186;6.458;2023-08-07T09:46:51;16.20;72.00
38223;DHT22;24024;51.186;6.458;2023-08-07T09:49:18;16.30;72.50
38223;DHT22;24024;51.186;6.458;2023-08-07T09:51:47;16.30;71.40
38223;DHT22;24024;51.186;6.458;2023-08-07T09:54:17;16.50;71.00
38223;DHT22;24024;51.186;6.458;2023-08-07T09:56:44;16.60;70.20
38223;DHT22;24024;51.186;6.458;2023-08-07T09:59:17;16.50;68.20
38223;DHT22;24024;51.186;6.458;2023-08-07T10:01:46;16.30;68.60
38223;DHT22;24024;51.186;6.458;2023-08-07T10:04:13;16.40;68.80
38223;DHT22;24024;51.186;6.458;2023-08-07T10:06:43;16.50;67.90
38223;DHT22;24024;51.186;6.458;2023-08-07T10:09:10;16.50;67.00
38223;DHT22;24024;51.186;6.458;2023-08-07T10:11:38;16.60;67.20
38223;DHT22;24024;51.186;6.458;2023-08-07T10:14:06;16.60;63.90
38223;DHT22;24024;51.186;6.458;2023-08-07T10:16:40;16.60;65.30
38223;DHT22;24024;51.186;6.458;2023-08-07T10:19:08;16.80;64.60
38223;DHT22;24024;51.186;6.458;2023-08-07T10:21:39;16.90;65.10
38223;DHT22;24024;51.186;6.458;2023-08-07T10:24:10;17.00;64.50
38223;DHT22;24024;51.186;6.458;2023-08-07T10:26:44;17.10;64.60
38223;DHT22;24024;51.186;6.458;2023-08-07T10:29:15;17.10;62.00
38223;DHT22;24024;51.186;6.458;2023-08-07T10:31:44;17.00;60.10
38223;DHT22;24024;51.186;6.458;2023-08-07T10:34:17;17.10;60.90
38223;DHT22;24024;51.186;6.458;2023-08-07T10:36:44;17.20;62.30
38223;DHT22;24024;51.186;6.458;2023-08-07T10:39:12;17.20;61.10
38223;DHT22;24024;51.186;6.458;2023-08-07T10:41:46;17.30;60.80
38223;DHT22;24024;51.186;6.458;2023-08-07T10:44:24;17.40;59.20
38223;DHT22;24024;51.186;6.458;2023-08-07T10:46:57;17.40;59.00
38223;DHT22;24024;51.186;6.458;2023-08-07T10:52:12;17.40;59.20
38223;DHT22;24024;51.186;6.458;2023-08-07T10:54:49;17.40;60.20
38223;DHT22;24024;51.186;6.458;2023-08-07T10:57:17;17.50;60.20
38223;DHT22;24024;51.186;6.458;2023-08-07T11:02:29;17.80;59.90
38223;DHT22;24024;51.186;6.458;2023-08-07T11:04:56;17.70;57.60
38223;DHT22;24024;51.186;6.458;2023-08-07T11:07:25;17.80;57.60
38223;DHT22;24024;51.186;6.458;2023-08-07T11:09:59;17.80;57.10
38223;DHT22;24024;51.186;6.458;2023-08-07T11:12:27;17.80;57.30
38223;DHT22;24024;51.186;6.458;2023-08-07T11:14:55;17.90;56.90
38223;DHT22;24024;51.186;6.458;2023-08-07T11:17:27;17.90;56.50
38223;DHT22;24024;51.186;6.458;2023-08-07T11:19:56;18.00;56.30
38223;DHT22;24024;51.186;6.458;2023-08-07T11:22:25;17.90;55.80
38223;DHT22;24024;51.186;6.458;2023-08-07T11:24:54;17.90;55.10
38223;DHT22;24024;51.186;6.458;2023-08-07T11:27:23;17.90;55.80
38223;DHT22;24024;51.186;6.458;2023-08-07T11:29:49;18.00;55.80
38223;DHT22;24024;51.186;6.458;2023-08-07T11:32:18;18.20;55.60
38223;DHT22;24024;51.186;6.458;2023-08-07T11:34:50;18.20;54.40
38223;DHT22;24024;51.186;6.458;2023-08-07T11:37:19;18.20;53.70
38223;DHT22;24024;51.186;6.458;2023-08-07T11:39:48;18.20;54.60
38223;DHT22;24024;51.186;6.458;2023-08-07T11:42:15;18.30;54.80
38223;DHT22;24024;51.186;6.458;2023-08-07T11:44:42;18.30;53.10
38223;DHT22;24024;51.186;6.458;2023-08-07T11:47:10;18.40;53.70
38223;DHT22;24024;51.186;6.458;2023-08-07T11:49:39;18.40;54.40
38223;DHT22;24024;51.186;6.458;2023-08-07T11:52:06;18.60;52.70
38223;DHT22;24024;51.186;6.458;2023-08-07T11:54:33;18.60;51.60
38223;DHT22;24024;51.186;6.458;2023-08-07T11:57:02;18.60;50.90
38223;DHT22;24024;51.186;6.458;2023-08-07T11:59:29;18.70;50.60
38223;DHT22;24024;51.186;6.458;2023-08-07T12:01:56;18.80;50.60
38223;DHT22;24024;51.186;6.458;2023-08-07T12:04:30;18.80;48.30
38223;DHT22;24024;51.186;6.458;2023-08-07T12:06:57;18.90;48.10
38223;DHT22;24024;51.186;6.458;2023-08-07T12:09:28;18.90;49.00
38223;DHT22;24024;51.186;6.458;2023-08-07T12:11:58;19.10;48.60
38223;DHT22;24024;51.186;6.458;2023-08-07T12:14:32;19.10;48.10
38223;DHT22;24024;51.186;6.458;2023-08-07T12:17:01;19.20;49.10
38223;DHT22;24024;51.186;6.458;2023-08-07T12:19:39;19.30;48.30
38223;DHT22;24024;51.186;6.458;2023-08-07T12:22:07;19.20;47.90
38223;DHT22;24024;51.186;6.458;2023-08-07T12:24:35;19.30;48.40
38223;DHT22;24024;51.186;6.458;2023-08-07T12:27:05;19.30;48.80
38223;DHT22;24024;51.186;6.458;2023-08-07T12:29:32;19.40;47.90
38223;DHT22;24024;51.186;6.458;2023-08-07T12:31:58;19.50;47.00
38223;DHT22;24024;51.186;6.458;2023-08-07T12:34:27;19.70;47.50
38223;DHT22;24024;51.186;6.458;2023-08-07T12:36:57;19.80;46.40
38223;DHT22;24024;51.186;6.458;2023-08-07T12:39:27;20.00;46.40
38223;DHT22;24024;51.186;6.458;2023-08-07T12:41:59;20.10;46.10
38223;DHT22;24024;51.186;6.458;2023-08-07T12:44:33;20.40;45.90
38223;DHT22;24024;51.186;6.458;2023-08-07T12:47:00;20.60;47.20
38223;DHT22;24024;51.186;6.458;2023-08-07T12:49:28;20.80;46.00
38223;DHT22;24024;51.186;6.458;2023-08-07T12:51:54;21.00;46.30
38223;DHT22;24024;51.186;6.458;2023-08-07T12:54:23;21.20;46.70
38223;DHT22;24024;51.186;6.458;2023-08-07T12:56:52;21.20;43.20
38223;DHT22;24024;51.186;6.458;2023-08-07T12:59:22;21.30;42.40
38223;DHT22;24024;51.186;6.458;2023-08-07T13:01:48;21.40;44.20
38223;DHT22;24024;51.186;6.458;2023-08-07T13:04:15;21.50;44.00
38223;DHT22;24024;51.186;6.458;2023-08-07T13:06:42;21.50;43.30
38223;DHT22;24024;51.186;6.458;2023-08-07T13:09:09;21.60;43.70
38223;DHT22;24024;51.186;6.458;2023-08-07T13:11:36;21.70;44.30
38223;DHT22;24024;51.186;6.458;2023-08-07T13:14:05;21.70;44.00
38223;DHT22;24024;51.186;6.458;2023-08-07T13:16:34;21.70;44.30
38223;DHT22;24024;51.186;6.458;2023-08-07T13:19:01;21.80;45.30
38223;DHT22;24024;51.186;6.458;2023-08-07T13:21:31;21.90;44.90
38223;DHT22;24024;51.186;6.458;2023-08-07T13:23:57;22.00;43.90
38223;DHT22;24024;51.186;6.458;2023-08-07T13:26:24;22.20;43.50
38223;DHT22;24024;51.186;6.458;2023-08-07T13:28:51;22.30;42.90
38223;DHT22;24024;51.186;6.458;2023-08-07T13:31:18;22.40;42.90
38223;DHT22;24024;51.186;6.458;2023-08-07T13:33:44;22.50;43.00
38223;DHT22;24024;51.186;6.458;2023-08-07T13:36:14;22.10;43.20
38223;DHT22;24024;51.186;6.458;2023-08-07T13:38:40;21.90;43.90
38223;DHT22;24024;51.186;6.458;2023-08-07T13:41:07;21.60;45.00
38223;DHT22;24024;51.186;6.458;2023-08-07T13:43:38;21.30;45.30
38223;DHT22;24024;51.186;6.458;2023-08-07T13:46:04;21.20;46.70
38223;DHT22;24024;51.186;6.458;2023-08-07T13:48:31;21.10;48.30
38223;DHT22;24024;51.186;6.458;2023-08-07T13:51:00;21.10;48.60
38223;DHT22;24024;51.186;6.458;2023-08-07T13:53:33;21.20;48.70
38223;DHT22;24024;51.186;6.458;2023-08-07T13:56:00;21.30;48.70
38223;DHT22;24024;51.186;6.458;2023-08-07T13:58:26;21.50;49.20
38223;DHT22;24024;51.186;6.458;2023-08-07T14:00:55;21.70;47.90
38223;DHT22;24024;51.186;6.458;2023-08-07T14:03:22;21.80;46.80
38223;DHT22;24024;51.186;6.458;2023-08-07T14:05:49;22.00;46.70
38223;DHT22;24024;51.186;6.458;2023-08-07T14:08:18;22.20;45.50
38223;DHT22;24024;51.186;6.458;2023-08-07T14:10:47;22.30;45.70
38223;DHT22;24024;51.186;6.458;2023-08-07T14:13:16;22.40;45.90
38223;DHT22;24024;51.186;6.458;2023-08-07T14:15:43;22.60;45.20
38223;DHT22;24024;51.186;6.458;2023-08-07T14:18:10;22.60;46.00
38223;DHT22;24024;51.186;6.458;2023-08-07T14:20:38;22.30;45.30
38223;DHT22;24024;51.186;6.458;2023-08-07T14:23:25;22.10;45.90
38223;DHT22;24024;51.186;6.458;2023-08-07T14:25:51;21.70;47.30
38223;DHT22;24024;51.186;6.458;2023-08-07T14:28:21;21.40;48.10
38223;DHT22;24024;51.186;6.458;2023-08-07T14:30:50;21.10;49.40
38223;DHT22;24024;51.186;6.458;2023-08-07T14:33:17;21.10;50.50
38223;DHT22;24024;51.186;6.458;2023-08-07T14:35:43;21.10;50.00
38223;DHT22;24024;51.186;6.458;2023-08-07T14:38:13;21.10;51.00
38223;DHT22;24024;51.186;6.458;2023-08-07T14:40:42;21.00;50.10
38223;DHT22;24024;51.186;6.458;2023-08-07T14:43:09;21.00;50.20
38223;DHT22;24024;51.186;6.458;2023-08-07T14:45:37;20.90;50.30
38223;DHT22;24024;51.186;6.458;2023-08-07T14:48:04;20.80;50.50
38223;DHT22;24024;51.186;6.458;2023-08-07T14:50:31;20.80;50.50
38223;DHT22;24024;51.186;6.458;2023-08-07T14:52:58;20.70;51.20
38223;DHT22;24024;51.186;6.458;2023-08-07T14:55:27;20.50;53.00
38223;DHT22;24024;51.186;6.458;2023-08-07T14:57:54;20.40;54.60
38223;DHT22;24024;51.186;6.458;2023-08-07T15:00:20;20.10;56.50
38223;DHT22;24024;51.186;6.458;2023-08-07T15:02:47;20.20;57.60
38223;DHT22;24024;51.186;6.458;2023-08-07T15:05:17;20.40;57.60
38223;DHT22;24024;51.186;6.458;2023-08-07T15:07:46;20.70;57.20
38223;DHT22;24024;51.186;6.458;2023-08-07T15:10:13;21.10;56.50
38223;DHT22;24024;51.186;6.458;2023-08-07T15:12:42;21.20;55.60
38223;DHT22;24024;51.186;6.458;2023-08-07T15:15:09;21.50;54.40
38223;DHT22;24024;51.186;6.458;2023-08-07T15:17:35;21.70;54.10
38223;DHT22;24024;51.186;6.458;2023-08-07T15:20:03;21.80;53.00
38223;DHT22;24024;51.186;6.458;2023-08-07T15:22:29;22.00;52.50
38223;DHT22;24024;51.186;6.458;2023-08-07T15:24:56;22.10;52.00
38223;DHT22;24024;51.186;6.458;2023-08-07T15:27:28;22.30;51.40
38223;DHT22;24024;51.186;6.458;2023-08-07T15:29:54;22.40;49.40
38223;DHT22;24024;51.186;6.458;2023-08-07T15:32:21;22.50;49.80
38223;DHT22;24024;51.186;6.458;2023-08-07T15:34:48;22.50;49.10
38223;DHT22;24024;51.186;6.458;2023-08-07T15:37:15;22.40;48.20
38223;DHT22;24024;51.186;6.458;2023-08-07T15:39:42;22.40;47.60
38223;DHT22;24024;51.186;6.458;2023-08-07T15:42:11;22.30;47.90
38223;DHT22;24024;51.186;6.458;2023-08-07T15:44:38;22.30;48.00
38223;DHT22;24024;51.186;6.458;2023-08-07T15:47:07;22.40;48.50